createdAt,value
2019-03-05T00:01:10.361Z,61.93
2019-03-05T00:03:38.963Z,51.20
2019-03-05T00:06:07.599Z,52.50
2019-03-05T00:08:36.298Z,63.57
2019-03-05T00:11:05.038Z,59.67
2019-03-05T00:13:33.598Z,55.17
2019-03-05T00:16:02.324Z,52.93
2019-03-05T00:18:30.929Z,55.40
2019-03-05T00:20:59.564Z,54.90
2019-03-05T00:23:47.613Z,56.30
2019-03-05T00:26:18.187Z,49.00
2019-03-05T00:29:14.776Z,46.00
2019-03-05T00:31:47.634Z,53.57
2019-03-05T00:34:40.278Z,52.37
2019-03-05T00:37:11.876Z,49.87
2019-03-05T00:40:18.007Z,57.43
2019-03-05T00:42:55.601Z,54.97
2019-03-05T00:45:38.981Z,50.70
2019-03-05T00:48:28.395Z,48.70
2019-03-05T00:51:24.933Z,47.20
2019-03-05T00:54:15.149Z,45.83
2019-03-05T00:56:55.709Z,47.77
2019-03-05T00:59:31.263Z,45.13
2019-03-05T01:02:11.656Z,47.57
2019-03-05T01:04:54.957Z,48.53
2019-03-05T01:07:24.797Z,47.87
2019-03-05T01:09:53.436Z,50.40
2019-03-05T01:12:23.042Z,49.33
2019-03-05T01:14:52.684Z,48.57
2019-03-05T01:17:21.410Z,46.97
2019-03-05T01:19:50.082Z,45.67
2019-03-05T01:22:18.758Z,47.13
2019-03-05T01:24:47.741Z,47.83
2019-03-05T01:27:16.383Z,46.23
2019-03-05T01:29:45.065Z,45.23
2019-03-05T01:32:25.680Z,45.87
2019-03-05T01:34:55.940Z,42.73
2019-03-05T01:37:24.658Z,44.03
2019-03-05T01:39:59.291Z,42.93
2019-03-05T01:42:27.931Z,44.83
2019-03-05T01:44:56.520Z,44.77
2019-03-05T01:47:25.147Z,42.93
2019-03-05T01:49:53.826Z,41.10
2019-03-05T01:52:22.425Z,39.37
2019-03-05T01:54:50.916Z,40.83
2019-03-05T01:57:19.444Z,40.10
2019-03-05T01:59:47.929Z,39.80
2019-03-05T02:02:16.523Z,38.17
2019-03-05T02:04:45.228Z,36.40
2019-03-05T02:07:13.904Z,34.97
2019-03-05T02:09:42.530Z,36.77
2019-03-05T02:12:11.196Z,34.93
2019-03-05T02:14:39.751Z,38.33
2019-03-05T02:17:08.415Z,37.83
2019-03-05T02:19:40.859Z,37.43
2019-03-05T02:22:12.693Z,33.93
2019-03-05T02:25:06.793Z,36.70
2019-03-05T02:27:51.875Z,34.23
2019-03-05T02:30:58.655Z,35.13
2019-03-05T02:33:30.196Z,31.60
2019-03-05T02:36:07.526Z,30.70
2019-03-05T02:38:41.761Z,33.93
2019-03-05T02:41:16.316Z,35.53
2019-03-05T02:44:10.645Z,33.53
2019-03-05T02:46:48.113Z,34.70
2019-03-05T02:49:42.000Z,37.53
2019-03-05T02:52:40.389Z,42.57
2019-03-05T02:55:23.853Z,48.10
2019-03-05T02:57:51.234Z,47.07
2019-03-05T03:00:22.627Z,52.40
2019-03-05T03:02:57.569Z,52.27
2019-03-05T03:05:36.860Z,47.33
2019-03-05T03:08:05.546Z,41.97
2019-03-05T03:10:34.150Z,40.10
2019-03-05T03:13:02.810Z,39.00
2019-03-05T03:15:31.443Z,37.00
2019-03-05T03:18:00.039Z,37.17
2019-03-05T03:20:28.668Z,36.80
2019-03-05T03:22:57.462Z,35.97
2019-03-05T03:25:26.070Z,35.13
2019-03-05T03:27:54.992Z,35.47
2019-03-05T03:30:23.799Z,34.00
2019-03-05T03:32:52.499Z,29.90
2019-03-05T03:35:21.163Z,29.47
2019-03-05T03:37:49.831Z,31.20
2019-03-05T03:40:19.958Z,32.17
2019-03-05T03:42:48.633Z,31.13
2019-03-05T03:45:19.016Z,31.10
2019-03-05T03:47:47.631Z,28.30
2019-03-05T03:50:16.192Z,28.67
2019-03-05T03:52:44.932Z,28.00
2019-03-05T03:55:15.105Z,27.00
2019-03-05T03:57:43.735Z,27.40
2019-03-05T04:00:20.223Z,27.40
2019-03-05T04:02:48.871Z,29.57
2019-03-05T04:05:17.515Z,28.47
2019-03-05T04:07:46.196Z,30.67
2019-03-05T04:10:16.032Z,27.20
2019-03-05T04:12:44.720Z,29.27
2019-03-05T04:15:16.079Z,30.77
2019-03-05T04:17:44.720Z,30.47
2019-03-05T04:20:17.402Z,30.60
2019-03-05T04:22:46.050Z,31.87
2019-03-05T04:25:14.659Z,31.10
2019-03-05T04:27:43.289Z,31.47
2019-03-05T04:30:14.101Z,30.87
2019-03-05T04:32:42.718Z,29.67
2019-03-05T04:35:14.119Z,28.33
2019-03-05T04:37:42.731Z,28.83
2019-03-05T04:40:12.865Z,28.43
2019-03-05T04:42:41.534Z,27.90
2019-03-05T04:45:48.965Z,28.83
2019-03-05T04:48:18.757Z,28.03
2019-03-05T04:50:56.673Z,29.77
2019-03-05T04:53:25.350Z,31.97
2019-03-05T04:55:54.037Z,35.13
2019-03-05T04:58:22.593Z,31.77
2019-03-05T05:00:51.299Z,31.67
2019-03-05T05:03:20.061Z,29.30
2019-03-05T05:05:48.739Z,29.63
2019-03-05T05:08:17.408Z,31.40
2019-03-05T05:10:45.980Z,32.63
2019-03-05T05:13:14.654Z,29.80
2019-03-05T05:15:43.223Z,29.73
2019-03-05T05:18:11.825Z,29.33
2019-03-05T05:20:40.472Z,26.30
2019-03-05T05:23:09.049Z,25.30
2019-03-05T05:25:37.730Z,27.53
2019-03-05T05:28:06.215Z,27.33
2019-03-05T05:30:36.099Z,25.97
2019-03-05T05:33:05.440Z,28.63
2019-03-05T05:35:34.002Z,26.83
2019-03-05T05:38:02.646Z,28.57
2019-03-05T05:40:36.139Z,26.47
2019-03-05T05:43:06.951Z,28.97
2019-03-05T05:45:42.537Z,28.30
2019-03-05T05:48:11.150Z,48.83
2019-03-05T05:50:39.709Z,29.40
2019-03-05T05:53:08.390Z,30.67
2019-03-05T05:55:37.064Z,30.20
2019-03-05T05:58:06.403Z,30.53
2019-03-05T06:00:36.638Z,33.77
2019-03-05T06:03:05.515Z,32.85
2019-03-05T06:05:34.158Z,30.73
2019-03-05T06:08:02.909Z,26.50
2019-03-05T06:10:31.711Z,30.13
2019-03-05T06:13:00.519Z,27.63
2019-03-05T06:15:29.303Z,25.77
2019-03-05T06:17:58.041Z,27.93
2019-03-05T06:20:26.813Z,26.63
2019-03-05T06:22:55.526Z,24.67
2019-03-05T06:25:24.203Z,24.77
2019-03-05T06:27:52.969Z,21.80
2019-03-05T06:30:23.414Z,22.13
2019-03-05T06:32:52.107Z,20.07
2019-03-05T06:35:20.860Z,20.90
2019-03-05T06:37:52.201Z,20.60
2019-03-05T06:40:26.199Z,23.30
2019-03-05T06:42:54.957Z,23.13
2019-03-05T06:45:24.932Z,21.97
2019-03-05T06:47:53.782Z,22.83
2019-03-05T06:50:24.806Z,25.07
2019-03-05T06:52:53.564Z,24.20
2019-03-05T06:55:22.304Z,26.80
2019-03-05T06:57:51.231Z,31.02
2019-03-05T07:00:41.099Z,29.30
2019-03-05T07:03:13.055Z,30.43
2019-03-05T07:06:17.989Z,30.53
2019-03-05T07:08:55.586Z,28.30
2019-03-05T07:11:38.931Z,34.13
2019-03-05T07:14:22.629Z,25.23
2019-03-05T07:17:18.396Z,25.90
2019-03-05T07:19:58.291Z,24.23
2019-03-05T07:22:50.801Z,23.30
2019-03-05T07:25:19.538Z,23.70
2019-03-05T07:27:48.216Z,23.10
2019-03-05T07:30:17.888Z,25.07
2019-03-05T07:32:46.601Z,27.20
2019-03-05T07:35:17.525Z,24.20
2019-03-05T07:37:46.284Z,22.77
2019-03-05T07:40:14.895Z,22.93
2019-03-05T07:42:43.577Z,23.43
2019-03-05T07:45:12.679Z,24.07
2019-03-05T07:47:41.367Z,23.33
2019-03-05T07:50:11.698Z,21.30
2019-03-05T07:52:40.669Z,24.27
2019-03-05T07:55:14.402Z,22.70
2019-03-05T07:57:43.213Z,22.00
2019-03-05T08:00:14.813Z,25.53
2019-03-05T08:02:43.496Z,25.17
2019-03-05T08:05:13.787Z,25.67
2019-03-05T08:07:42.625Z,33.57
2019-03-05T08:10:23.192Z,39.03
2019-03-05T08:12:57.390Z,35.70
2019-03-05T08:15:33.559Z,32.67
2019-03-05T08:18:02.250Z,31.43
2019-03-05T08:20:30.895Z,29.10
2019-03-05T08:22:59.507Z,25.53
2019-03-05T08:25:28.069Z,26.90
2019-03-05T08:27:59.911Z,28.33
2019-03-05T08:30:28.781Z,28.23
2019-03-05T08:32:57.521Z,28.10
2019-03-05T08:35:26.196Z,29.93
2019-03-05T08:37:55.078Z,30.13
2019-03-05T08:40:23.973Z,30.90
2019-03-05T08:42:52.771Z,31.20
2019-03-05T08:45:29.271Z,28.63
2019-03-05T08:47:53.533Z,28.83
2019-03-05T08:50:22.315Z,28.87
2019-03-05T08:52:50.887Z,29.10
2019-03-05T08:55:19.491Z,26.87
2019-03-05T08:57:48.170Z,26.63
2019-03-05T09:00:22.120Z,27.97
2019-03-05T09:02:50.865Z,26.80
2019-03-05T09:05:20.766Z,30.20
2019-03-05T09:07:49.852Z,31.27
2019-03-05T09:10:24.285Z,26.90
2019-03-05T09:12:57.184Z,25.60
2019-03-05T09:15:33.308Z,23.52
2019-03-05T09:18:02.299Z,24.47
2019-03-05T09:20:31.154Z,21.40
2019-03-05T09:22:59.982Z,22.13
2019-03-05T09:25:28.734Z,18.92
2019-03-05T09:28:07.173Z,20.50
2019-03-05T09:30:37.083Z,19.92
2019-03-05T09:33:19.486Z,20.30
2019-03-05T09:35:50.578Z,18.90
2019-03-05T09:38:21.371Z,18.23
2019-03-05T09:40:50.014Z,17.25
2019-03-05T09:43:19.000Z,16.48
2019-03-05T09:45:47.821Z,15.40
2019-03-05T09:48:16.730Z,11.57
2019-03-05T09:50:46.186Z,10.93
2019-03-05T09:53:14.928Z,13.85
2019-03-05T09:55:45.330Z,10.40
2019-03-05T09:58:14.286Z,12.20
2019-03-05T10:03:48.209Z,13.70
2019-03-05T10:06:20.154Z,14.60
2019-03-05T10:08:48.799Z,18.40
2019-03-05T10:11:17.407Z,19.42
2019-03-05T10:13:45.985Z,26.82
2019-03-05T10:16:14.667Z,23.38
2019-03-05T10:18:43.231Z,22.30
2019-03-05T10:21:12.455Z,24.90
2019-03-05T10:23:40.985Z,15.75
2019-03-05T10:26:10.647Z,20.82
2019-03-05T10:28:39.376Z,21.10
2019-03-05T10:31:13.685Z,23.77
2019-03-05T10:33:42.384Z,17.95
2019-03-05T10:36:11.317Z,14.15
2019-03-05T10:38:40.205Z,15.98
2019-03-05T10:41:09.013Z,18.98
2019-03-05T10:43:37.865Z,4.20
2019-03-05T10:46:06.917Z,13.22
2019-03-05T10:48:35.604Z,12.65
2019-03-05T10:51:04.704Z,5.17
2019-03-05T10:53:37.583Z,11.90
2019-03-05T10:56:15.415Z,13.53
2019-03-05T10:58:45.462Z,28.83
2019-03-05T11:01:18.379Z,25.50
2019-03-05T11:03:48.115Z,13.50
2019-03-05T11:06:17.507Z,9.80
2019-03-05T11:08:48.033Z,11.05
2019-03-05T11:11:17.111Z,11.78
2019-03-05T11:13:46.185Z,4.92
2019-03-05T11:16:16.255Z,6.20
2019-03-05T11:18:45.341Z,5.03
2019-03-05T11:21:14.104Z,3.95
2019-03-05T11:23:43.176Z,4.22
2019-03-05T11:26:12.073Z,4.60
2019-03-05T11:28:42.612Z,4.65
2019-03-05T11:31:13.067Z,4.75
2019-03-05T11:33:44.936Z,5.20
2019-03-05T11:36:13.768Z,7.65
2019-03-05T11:38:42.842Z,5.83
2019-03-05T11:41:11.593Z,4.60
2019-03-05T11:43:40.269Z,4.50
2019-03-05T11:46:11.457Z,4.50
2019-03-05T11:48:43.255Z,3.37
2019-03-05T11:51:12.042Z,3.65
2019-03-05T11:53:40.854Z,3.27
2019-03-05T11:56:09.679Z,2.85
2019-03-05T11:58:38.417Z,3.05
2019-03-05T12:01:10.044Z,2.98
2019-03-05T12:03:38.947Z,3.30
2019-03-05T12:06:07.620Z,3.20
2019-03-05T12:08:37.693Z,3.30
2019-03-05T12:11:06.468Z,2.90
2019-03-05T12:13:36.661Z,2.98
2019-03-05T12:16:06.154Z,3.10
2019-03-05T12:18:34.934Z,2.35
2019-03-05T12:21:03.522Z,2.33
2019-03-05T12:23:32.199Z,2.85
2019-03-05T12:26:00.838Z,2.90
2019-03-05T12:28:29.565Z,2.98
2019-03-05T12:30:58.416Z,3.20
2019-03-05T12:33:27.195Z,3.35
2019-03-05T12:35:55.869Z,3.15
2019-03-05T12:38:24.633Z,2.60
2019-03-05T12:40:53.362Z,3.52
2019-03-05T12:43:22.122Z,3.00
2019-03-05T12:45:50.865Z,3.20
2019-03-05T12:48:19.794Z,2.40
2019-03-05T12:50:48.490Z,3.17
2019-03-05T12:53:18.184Z,2.87
2019-03-05T12:55:47.353Z,2.67
2019-03-05T12:58:16.362Z,2.67
2019-03-05T13:00:45.090Z,2.52
2019-03-05T13:03:13.729Z,2.37
2019-03-05T13:05:42.395Z,2.92
2019-03-05T13:08:11.113Z,2.02
2019-03-05T13:10:39.800Z,2.40
2019-03-05T13:13:14.009Z,2.47
2019-03-05T13:15:40.631Z,2.92
2019-03-05T13:18:09.358Z,3.00
2019-03-05T13:20:38.114Z,3.67
2019-03-05T13:23:09.668Z,3.87
2019-03-05T13:25:38.437Z,3.92
2019-03-05T13:28:09.022Z,3.98
2019-03-05T13:30:40.467Z,3.92
2019-03-05T13:33:09.306Z,4.80
2019-03-05T13:35:38.006Z,3.50
2019-03-05T13:38:12.005Z,2.25
2019-03-05T13:40:40.904Z,3.55
2019-03-05T13:43:09.783Z,3.17
2019-03-05T13:45:42.838Z,3.58
2019-03-05T13:48:24.063Z,3.22
2019-03-05T13:51:13.360Z,4.10
2019-03-05T13:54:09.421Z,4.45
2019-03-05T13:57:09.562Z,5.33
2019-03-05T13:59:48.868Z,4.10
2019-03-05T14:02:26.297Z,4.25
2019-03-05T14:05:13.034Z,3.87
2019-03-05T14:08:08.800Z,3.75
2019-03-05T14:10:37.607Z,3.72
2019-03-05T14:13:06.350Z,3.92
2019-03-05T14:15:35.847Z,3.62
2019-03-05T14:18:05.293Z,5.00
2019-03-05T14:20:35.225Z,3.90
2019-03-05T14:23:04.106Z,2.92
2019-03-05T14:25:32.937Z,2.70
2019-03-05T14:28:01.619Z,4.45
2019-03-05T14:30:30.351Z,2.85
2019-03-05T14:33:00.870Z,3.35
2019-03-05T14:35:29.522Z,3.40
2019-03-05T14:37:58.205Z,3.67
2019-03-05T14:40:29.095Z,4.00
2019-03-05T14:42:58.172Z,4.65
2019-03-05T14:45:29.557Z,3.60
2019-03-05T14:47:59.429Z,3.20
2019-03-05T14:50:28.068Z,4.53
2019-03-05T14:52:56.763Z,4.37
2019-03-05T14:55:25.461Z,8.85
2019-03-05T14:57:54.126Z,3.52
2019-03-05T15:00:23.529Z,5.15
2019-03-05T15:02:52.261Z,5.95
2019-03-05T15:05:23.878Z,4.50
2019-03-05T15:07:52.582Z,6.87
2019-03-05T15:10:21.226Z,7.17
2019-03-05T15:12:50.009Z,12.07
2019-03-05T15:15:21.458Z,7.20
2019-03-05T15:17:50.271Z,8.97
2019-03-05T15:20:18.949Z,17.90
2019-03-05T15:22:47.563Z,21.07
2019-03-05T15:25:17.174Z,12.77
2019-03-05T15:27:45.791Z,10.07
2019-03-05T15:30:16.454Z,9.87
2019-03-05T15:32:45.121Z,8.43
2019-03-05T15:35:13.757Z,6.50
2019-03-05T15:37:42.409Z,6.87
2019-03-05T15:40:13.811Z,10.53
2019-03-05T15:42:42.450Z,8.80
2019-03-05T15:45:13.553Z,6.27
2019-03-05T15:47:42.799Z,6.20
2019-03-05T15:50:13.949Z,5.77
2019-03-05T15:52:42.603Z,5.03
2019-03-05T15:55:13.731Z,5.00
2019-03-05T15:57:42.393Z,5.93
2019-03-05T16:00:16.892Z,4.03
2019-03-05T16:02:45.566Z,15.90
2019-03-05T16:05:16.724Z,5.53
2019-03-05T16:07:48.100Z,4.43
2019-03-05T16:10:18.643Z,5.17
2019-03-05T16:12:47.434Z,5.57
2019-03-05T16:15:18.584Z,5.63
2019-03-05T16:17:46.847Z,5.83
2019-03-05T16:20:19.582Z,5.53
2019-03-05T16:22:51.071Z,5.30
2019-03-05T16:25:22.105Z,4.80
2019-03-05T16:27:50.187Z,8.17
2019-03-05T16:30:48.898Z,6.10
2019-03-05T16:33:38.556Z,7.80
2019-03-05T16:36:20.954Z,6.43
2019-03-05T16:38:56.738Z,7.20
2019-03-05T16:41:29.727Z,6.77
2019-03-05T16:44:14.965Z,6.73
2019-03-05T16:47:01.424Z,7.03
2019-03-05T16:49:44.206Z,9.00
2019-03-05T16:52:23.837Z,17.80
2019-03-05T16:54:59.834Z,26.17
2019-03-05T16:57:33.150Z,27.53
2019-03-05T17:00:06.563Z,9.10
2019-03-05T17:02:39.782Z,7.60
2019-03-05T17:05:22.418Z,6.40
2019-03-05T17:07:55.762Z,10.90
2019-03-05T17:10:26.074Z,11.70
2019-03-05T17:12:54.718Z,15.27
2019-03-05T17:15:23.321Z,16.07
2019-03-05T17:17:51.869Z,17.33
2019-03-05T17:20:20.510Z,15.43
2019-03-05T17:22:52.178Z,12.77
2019-03-05T17:25:22.427Z,14.47
2019-03-05T17:27:51.097Z,16.50
2019-03-05T17:30:22.456Z,15.67
2019-03-05T17:32:51.766Z,16.50
2019-03-05T17:35:20.596Z,37.20
2019-03-05T17:37:49.366Z,44.23
2019-03-05T17:40:18.007Z,32.83
2019-03-05T17:42:46.675Z,35.83
2019-03-05T17:45:23.320Z,34.37
2019-03-05T17:47:52.433Z,37.43
2019-03-05T17:50:21.035Z,37.90
2019-03-05T17:52:49.669Z,43.83
2019-03-05T17:55:26.251Z,41.13
2019-03-05T17:57:54.029Z,38.20
2019-03-05T18:00:30.360Z,38.30
2019-03-05T18:02:59.007Z,36.30
2019-03-05T18:05:27.711Z,30.83
2019-03-05T18:07:56.340Z,29.93
2019-03-05T18:10:25.154Z,28.87
2019-03-05T18:12:53.836Z,25.10
2019-03-05T18:15:22.461Z,23.50
2019-03-05T18:17:51.129Z,21.33
2019-03-05T18:20:21.429Z,21.27
2019-03-05T18:22:50.285Z,22.30
2019-03-05T18:25:19.761Z,22.77
2019-03-05T18:27:48.392Z,22.47
2019-03-05T18:30:21.844Z,22.93
2019-03-05T18:32:50.546Z,21.93
2019-03-05T18:35:21.682Z,23.73
2019-03-05T18:37:50.314Z,23.47
2019-03-05T18:40:23.268Z,23.23
2019-03-05T18:42:51.951Z,23.83
2019-03-05T18:45:32.075Z,24.47
2019-03-05T18:48:00.707Z,21.80
2019-03-05T18:50:29.342Z,20.87
2019-03-05T18:52:59.215Z,21.10
2019-03-05T18:55:28.135Z,26.33
2019-03-05T18:57:56.813Z,27.33
2019-03-05T19:00:36.548Z,31.73
2019-03-05T19:03:10.575Z,31.03
2019-03-05T19:05:39.434Z,26.57
2019-03-05T19:08:08.218Z,22.93
2019-03-05T19:10:36.944Z,23.33
2019-03-05T19:13:05.579Z,21.53
2019-03-05T19:15:34.365Z,16.03
2019-03-05T19:18:07.189Z,15.80
2019-03-05T19:20:35.894Z,16.33
2019-03-05T19:23:04.570Z,19.17
2019-03-05T19:25:40.568Z,20.43
2019-03-05T19:28:11.415Z,21.63
2019-03-05T19:30:47.959Z,23.87
2019-03-05T19:33:16.586Z,31.03
2019-03-05T19:35:45.267Z,30.33
2019-03-05T19:38:13.949Z,30.77
2019-03-05T19:40:46.896Z,28.83
2019-03-05T19:43:15.527Z,30.60
2019-03-05T19:45:44.210Z,28.63
2019-03-05T19:48:12.947Z,25.17
2019-03-05T19:50:42.003Z,26.30
2019-03-05T19:53:10.686Z,33.03
2019-03-05T19:55:39.420Z,31.70
2019-03-05T19:58:12.578Z,34.13
2019-03-05T20:00:56.432Z,41.73
2019-03-05T20:03:25.131Z,33.07
2019-03-05T20:05:53.809Z,38.93
2019-03-05T20:08:22.532Z,34.43
2019-03-05T20:10:51.218Z,35.43
2019-03-05T20:13:19.861Z,51.53
2019-03-05T20:15:48.498Z,54.67
2019-03-05T20:18:16.990Z,40.17
2019-03-05T20:20:45.662Z,39.63
2019-03-05T20:23:14.302Z,36.47
2019-03-05T20:25:43.076Z,33.67
2019-03-05T20:28:12.117Z,28.43
2019-03-05T20:30:40.867Z,29.63
2019-03-05T20:33:09.728Z,20.73
2019-03-05T20:35:38.378Z,21.30
2019-03-05T20:38:07.166Z,18.63
2019-03-05T20:40:35.847Z,18.93
2019-03-05T20:43:05.286Z,17.50
2019-03-05T20:45:42.625Z,16.23
2019-03-05T20:48:11.259Z,19.00
2019-03-05T20:50:39.923Z,19.50
2019-03-05T20:53:08.573Z,19.20
2019-03-05T20:55:37.203Z,19.03
2019-03-05T20:58:05.830Z,18.80
2019-03-05T21:00:35.501Z,18.47
2019-03-05T21:03:09.335Z,20.13
2019-03-05T21:05:40.344Z,18.60
2019-03-05T21:08:09.024Z,17.60
2019-03-05T21:10:37.854Z,22.07
2019-03-05T21:13:07.054Z,29.77
2019-03-05T21:15:36.639Z,26.90
2019-03-05T21:18:12.978Z,27.87
2019-03-05T21:20:41.590Z,32.00
2019-03-05T21:23:10.260Z,37.00
2019-03-05T21:25:38.885Z,36.67
2019-03-05T21:28:07.632Z,34.37
2019-03-05T21:30:36.319Z,34.23
2019-03-05T21:33:04.963Z,37.27
2019-03-05T21:35:33.637Z,33.63
2019-03-05T21:38:02.262Z,27.90
2019-03-05T21:40:31.897Z,25.97
2019-03-05T21:43:00.459Z,24.53
2019-03-05T21:45:43.816Z,22.63
2019-03-05T21:48:12.459Z,23.93
2019-03-05T21:50:41.100Z,23.00
2019-03-05T21:53:09.792Z,23.77
2019-03-05T21:55:38.468Z,26.43
2019-03-05T21:58:07.097Z,31.50
2019-03-05T22:00:40.407Z,29.40
2019-03-05T22:03:09.055Z,28.07
2019-03-05T22:05:37.829Z,27.60
2019-03-05T22:08:06.457Z,26.93
2019-03-05T22:10:35.331Z,27.83
2019-03-05T22:13:03.973Z,28.53
2019-03-05T22:15:34.244Z,27.73
2019-03-05T22:18:02.878Z,26.87
2019-03-05T22:20:31.541Z,26.87
2019-03-05T22:23:00.357Z,27.70
2019-03-05T22:25:29.357Z,27.83
2019-03-05T22:28:01.041Z,27.27
2019-03-05T22:30:37.611Z,27.87
2019-03-05T22:33:06.561Z,28.50
2019-03-05T22:35:35.204Z,28.00
2019-03-05T22:38:03.846Z,29.83
2019-03-05T22:40:32.412Z,30.80
2019-03-05T22:43:01.059Z,31.33
2019-03-05T22:45:31.094Z,30.43
2019-03-05T22:47:59.777Z,29.90
2019-03-05T22:50:28.333Z,31.50
2019-03-05T22:52:57.008Z,31.30
2019-03-05T22:55:25.644Z,29.13
2019-03-05T22:57:54.285Z,25.60
2019-03-05T23:00:36.271Z,22.47
2019-03-05T23:03:07.079Z,23.83
2019-03-05T23:05:35.806Z,18.50
2019-03-05T23:08:04.835Z,11.23
2019-03-05T23:10:33.498Z,9.57
2019-03-05T23:13:02.165Z,7.97
2019-03-05T23:15:30.917Z,7.93
2019-03-05T23:17:59.404Z,7.40
2019-03-05T23:20:28.685Z,8.17
2019-03-05T23:22:57.360Z,8.30
2019-03-05T23:25:26.159Z,8.00
2019-03-05T23:27:55.107Z,7.57
2019-03-05T23:30:23.727Z,8.30
2019-03-05T23:32:53.524Z,8.60
2019-03-05T23:35:22.299Z,7.20
2019-03-05T23:37:51.167Z,7.23
2019-03-05T23:40:20.237Z,6.20
2019-03-05T23:42:48.859Z,6.50
2019-03-05T23:45:18.806Z,6.13
2019-03-05T23:47:47.680Z,7.47
2019-03-05T23:50:18.135Z,7.57
2019-03-05T23:52:46.761Z,7.03
2019-03-05T23:55:16.493Z,10.40
2019-03-05T23:57:45.451Z,11.87
